Time;durP1;ratioP1;P1;durP2;ratioP2;P2;SDS_P1;SDS_P2;PMS_P1;PMS_P2;Temp;Humidity;BMP_temperature;BMP_pressure;BME280_temperature;BME280_humidity;BME280_pressure;Samples;Min_cycle;Max_cycle;Signal;HPM_P1;HPM_P2
2021/04/25 00:00:48;;;;;;;11.73;6.80;;;;;;;;;;5037872;28;37935;-75
2021/04/25 00:03:14;;;;;;;12.30;6.90;;;;;;;;;;5024081;28;38928;-75
2021/04/25 00:05:41;;;;;;;10.17;7.27;;;;;;;;;;5021585;28;39248;-74
2021/04/25 00:08:08;;;;;;;9.70;6.70;;;;;;;;;;5025030;28;36535;-74
2021/04/25 00:10:34;;;;;;;14.90;7.53;;;;;;;;;;5032041;28;39881;-75
2021/04/25 00:13:00;;;;;;;16.10;7.87;;;;;;;;;;5036239;28;39460;-75
2021/04/25 00:15:27;;;;;;;11.83;7.43;;;;;;;;;;5030521;28;38822;-75
2021/04/25 00:17:54;;;;;;;12.93;6.90;;;;;;;;;;5027199;28;37965;-75
2021/04/25 00:20:22;;;;;;;13.90;6.87;;;;;;;;;;5026606;28;39470;-75
2021/04/25 00:22:49;;;;;;;12.93;7.03;;;;;;;;;;5025863;28;39227;-75
2021/04/25 00:25:15;;;;;;;13.63;6.43;;;;;;;;;;5027032;28;38472;-75
2021/04/25 00:27:42;;;;;;;13.50;7.20;;;;;;;;;;5023634;28;36962;-75
2021/04/25 00:30:10;;;;;;;13.77;7.03;;;;;;;;;;5024955;28;39849;-75
2021/04/25 00:32:37;;;;;;;16.77;7.67;;;;;;;;;;5029948;28;38912;-75
2021/04/25 00:35:04;;;;;;;11.90;7.03;;;;;;;;;;5022560;28;38049;-75
2021/04/25 00:37:31;;;;;;;16.03;7.07;;;;;;;;;;5014477;28;39421;-75
2021/04/25 00:39:57;;;;;;;12.20;7.53;;;;;;;;;;5026934;28;39734;-75
2021/04/25 00:42:24;;;;;;;11.63;6.77;;;;;;;;;;5018399;28;39097;-75
2021/04/25 00:44:51;;;;;;;13.83;7.37;;;;;;;;;;5022009;28;40473;-75
2021/04/25 00:47:17;;;;;;;18.17;7.90;;;;;;;;;;5024138;28;36811;-74
2021/04/25 00:49:44;;;;;;;13.53;8.33;;;;;;;;;;5026982;28;38661;-76
2021/04/25 00:52:10;;;;;;;16.77;9.17;;;;;;;;;;5023437;28;39052;-76
2021/04/25 00:54:37;;;;;;;16.67;8.30;;;;;;;;;;5024818;28;38883;-75
2021/04/25 00:57:03;;;;;;;15.20;8.00;;;;;;;;;;5023390;28;38626;-75
2021/04/25 00:59:30;;;;;;;14.20;8.07;;;;;;;;;;5023844;28;38952;-76
2021/04/25 01:01:56;;;;;;;14.60;8.43;;;;;;;;;;5022189;28;38806;-76
2021/04/25 01:04:23;;;;;;;16.20;8.10;;;;;;;;;;5026927;28;40488;-75
2021/04/25 01:06:49;;;;;;;12.23;8.67;;;;;;;;;;5015720;28;36955;-75
2021/04/25 01:09:16;;;;;;;16.27;9.00;;;;;;;;;;5037591;28;39022;-76
2021/04/25 01:11:43;;;;;;;14.67;8.23;;;;;;;;;;5023404;28;39691;-76
2021/04/25 01:14:09;;;;;;;17.50;8.67;;;;;;;;;;5022195;28;38537;-73
2021/04/25 01:16:35;;;;;;;20.50;9.20;;;;;;;;;;5028475;28;37037;-74
2021/04/25 01:19:02;;;;;;;18.17;10.07;;;;;;;;;;5043926;28;37151;-74
2021/04/25 01:21:28;;;;;;;13.60;8.77;;;;;;;;;;5024826;28;39769;-75
2021/04/25 01:23:54;;;;;;;17.73;8.90;;;;;;;;;;5035143;28;39861;-75
2021/04/25 01:26:21;;;;;;;19.83;9.40;;;;;;;;;;5031429;28;37615;-75
2021/04/25 01:28:47;;;;;;;17.63;11.23;;;;;;;;;;5022692;28;40386;-76
2021/04/25 01:31:13;;;;;;;17.80;10.30;;;;;;;;;;5026474;28;40189;-75
2021/04/25 01:33:40;;;;;;;22.53;10.87;;;;;;;;;;5023269;28;39470;-75
2021/04/25 01:36:07;;;;;;;15.20;10.57;;;;;;;;;;5023250;28;37306;-75
2021/04/25 01:38:33;;;;;;;24.67;10.60;;;;;;;;;;5022980;28;39659;-75
2021/04/25 01:41:00;;;;;;;21.13;10.77;;;;;;;;;;5023626;28;38457;-77
2021/04/25 01:43:26;;;;;;;19.27;9.93;;;;;;;;;;5023160;28;39443;-76
2021/04/25 01:45:52;;;;;;;16.87;9.70;;;;;;;;;;5025943;28;39108;-76
2021/04/25 01:48:19;;;;;;;20.80;10.60;;;;;;;;;;5024873;28;40433;-77
2021/04/25 01:50:45;;;;;;;20.43;11.00;;;;;;;;;;5023985;28;38775;-76
2021/04/25 01:53:12;;;;;;;23.73;10.87;;;;;;;;;;5019999;28;38972;-77
2021/04/25 01:55:39;;;;;;;20.53;11.50;;;;;;;;;;5016809;28;37254;-76
2021/04/25 01:58:06;;;;;;;23.13;12.10;;;;;;;;;;5018066;28;40538;-77
2021/04/25 02:00:37;;;;;;;23.60;11.33;;;;;;;;;;5022354;28;47119;-76
2021/04/25 02:03:05;;;;;;;23.87;11.90;;;;;;;;;;5023137;28;39892;-76
2021/04/25 02:05:31;;;;;;;23.43;10.90;;;;;;;;;;5024207;28;38510;-77
2021/04/25 02:07:57;;;;;;;22.57;10.50;;;;;;;;;;5022422;28;38974;-77
2021/04/25 02:10:24;;;;;;;18.03;9.67;;;;;;;;;;5025638;28;39827;-76
2021/04/25 02:12:51;;;;;;;20.23;10.47;;;;;;;;;;5018654;28;39648;-76
2021/04/25 02:15:18;;;;;;;21.67;9.83;;;;;;;;;;5030575;28;35230;-77
2021/04/25 02:17:44;;;;;;;20.67;10.33;;;;;;;;;;5025341;28;39800;-76
2021/04/25 02:20:12;;;;;;;22.57;9.87;;;;;;;;;;5019391;28;39522;-76
2021/04/25 02:22:38;;;;;;;18.10;9.93;;;;;;;;;;5016738;28;40283;-77
2021/04/25 02:25:06;;;;;;;18.20;10.17;;;;;;;;;;5041178;28;37395;-77
2021/04/25 02:27:32;;;;;;;17.07;9.80;;;;;;;;;;5027911;28;40007;-77
2021/04/25 02:29:58;;;;;;;14.30;9.27;;;;;;;;;;5025042;28;39200;-77
2021/04/25 02:32:25;;;;;;;19.03;8.87;;;;;;;;;;5028126;28;39888;-77
2021/04/25 02:34:51;;;;;;;18.50;9.23;;;;;;;;;;5020522;28;38649;-77
2021/04/25 02:37:18;;;;;;;15.83;8.90;;;;;;;;;;5017273;28;40045;-76
2021/04/25 02:39:44;;;;;;;18.67;9.40;;;;;;;;;;5026709;28;39045;-77
2021/04/25 02:42:11;;;;;;;19.20;8.83;;;;;;;;;;5026302;28;38903;-77
2021/04/25 02:44:37;;;;;;;15.93;8.37;;;;;;;;;;5041426;28;37288;-76
2021/04/25 02:47:04;;;;;;;16.17;8.57;;;;;;;;;;5024921;28;39658;-76
2021/04/25 02:49:30;;;;;;;16.77;8.13;;;;;;;;;;5028931;28;39905;-76
2021/04/25 02:51:57;;;;;;;15.90;9.00;;;;;;;;;;5023865;28;38910;-76
2021/04/25 02:54:23;;;;;;;14.00;7.33;;;;;;;;;;5019301;28;36542;-77
2021/04/25 02:56:50;;;;;;;12.63;7.50;;;;;;;;;;5027933;28;38618;-76
2021/04/25 02:59:16;;;;;;;14.77;7.57;;;;;;;;;;5021928;28;39644;-77
2021/04/25 03:01:42;;;;;;;12.93;5.77;;;;;;;;;;5025570;28;38901;-76
2021/04/25 03:04:09;;;;;;;10.27;5.37;;;;;;;;;;5025520;28;37033;-77
2021/04/25 03:06:35;;;;;;;12.10;5.83;;;;;;;;;;5035816;28;39323;-76
2021/04/25 03:09:02;;;;;;;12.03;5.60;;;;;;;;;;5026125;28;40359;-76
2021/04/25 03:11:28;;;;;;;12.37;5.67;;;;;;;;;;5025127;28;38378;-76
2021/04/25 03:13:54;;;;;;;8.70;4.73;;;;;;;;;;5024191;28;37231;-76
2021/04/25 03:16:21;;;;;;;7.50;5.27;;;;;;;;;;5024443;28;39612;-77
2021/04/25 03:18:47;;;;;;;10.03;5.33;;;;;;;;;;5028904;28;39209;-76
2021/04/25 03:21:13;;;;;;;9.07;5.17;;;;;;;;;;5023366;28;38848;-76
2021/04/25 03:23:40;;;;;;;11.00;5.27;;;;;;;;;;5021329;28;38407;-77
2021/04/25 03:26:06;;;;;;;11.33;5.43;;;;;;;;;;5026223;28;38958;-76
2021/04/25 03:28:33;;;;;;;8.17;4.97;;;;;;;;;;5019040;28;38026;-77
2021/04/25 03:30:59;;;;;;;10.00;5.23;;;;;;;;;;5039968;28;39632;-77
2021/04/25 03:33:25;;;;;;;9.33;5.30;;;;;;;;;;5031026;28;37465;-76
2021/04/25 03:35:52;;;;;;;10.13;5.17;;;;;;;;;;5021904;28;39667;-77
2021/04/25 03:38:18;;;;;;;8.57;5.00;;;;;;;;;;5020739;28;38982;-76
2021/04/25 03:40:45;;;;;;;10.63;6.07;;;;;;;;;;5036587;28;39180;-76
2021/04/25 03:43:11;;;;;;;9.93;5.10;;;;;;;;;;5024891;28;36688;-77
2021/04/25 03:45:38;;;;;;;7.80;4.83;;;;;;;;;;5033367;28;39794;-77
2021/04/25 03:48:04;;;;;;;11.30;5.17;;;;;;;;;;5022429;28;39091;-77
2021/04/25 03:50:31;;;;;;;12.10;5.10;;;;;;;;;;5026151;28;39139;-77
2021/04/25 03:52:57;;;;;;;11.20;5.73;;;;;;;;;;5025118;28;36291;-77
2021/04/25 03:55:24;;;;;;;10.00;5.43;;;;;;;;;;5018413;28;40762;-76
2021/04/25 03:57:51;;;;;;;8.70;4.80;;;;;;;;;;5034113;28;40581;-77
2021/04/25 04:00:18;;;;;;;7.83;4.80;;;;;;;;;;5025270;28;38563;-77
2021/04/25 04:02:44;;;;;;;13.47;5.00;;;;;;;;;;5025383;28;37203;-76
2021/04/25 04:05:11;;;;;;;9.50;5.50;;;;;;;;;;5022409;28;39265;-77
2021/04/25 04:07:37;;;;;;;9.70;4.73;;;;;;;;;;5021086;28;39234;-76
2021/04/25 04:10:04;;;;;;;10.83;5.10;;;;;;;;;;5023974;28;38192;-77
2021/04/25 04:12:31;;;;;;;12.17;5.17;;;;;;;;;;5041111;28;48191;-76
2021/04/25 04:14:57;;;;;;;10.70;5.13;;;;;;;;;;5024214;28;40548;-76
2021/04/25 04:17:23;;;;;;;8.23;4.40;;;;;;;;;;5027554;28;39223;-77
2021/04/25 04:19:50;;;;;;;10.23;4.67;;;;;;;;;;5027625;28;38389;-77
2021/04/25 04:22:16;;;;;;;7.20;4.20;;;;;;;;;;5021993;28;37659;-77
2021/04/25 04:24:43;;;;;;;7.57;4.50;;;;;;;;;;5025666;28;40099;-77
2021/04/25 04:27:09;;;;;;;5.43;3.90;;;;;;;;;;5023123;28;39941;-77
2021/04/25 04:29:35;;;;;;;11.70;4.57;;;;;;;;;;5023621;28;38579;-77
2021/04/25 04:32:02;;;;;;;9.23;4.70;;;;;;;;;;5025432;28;36895;-77
2021/04/25 04:34:28;;;;;;;9.37;5.13;;;;;;;;;;5036295;28;40294;-77
2021/04/25 04:36:54;;;;;;;9.80;4.57;;;;;;;;;;5024044;28;39244;-77
2021/04/25 04:39:21;;;;;;;6.90;4.30;;;;;;;;;;5026561;28;39667;-78
2021/04/25 04:41:47;;;;;;;11.00;4.83;;;;;;;;;;5025966;28;37703;-77
2021/04/25 04:44:14;;;;;;;11.40;5.23;;;;;;;;;;5013961;28;40768;-77
2021/04/25 04:46:40;;;;;;;8.43;5.03;;;;;;;;;;5021211;28;39340;-78
2021/04/25 04:49:06;;;;;;;10.30;5.30;;;;;;;;;;5022242;28;39637;-77
2021/04/25 04:51:33;;;;;;;10.47;5.30;;;;;;;;;;5024692;28;37771;-77
2021/04/25 04:53:59;;;;;;;11.57;4.80;;;;;;;;;;5014071;28;39676;-77
2021/04/25 04:56:26;;;;;;;9.40;4.80;;;;;;;;;;5021318;28;39858;-77
2021/04/25 04:58:52;;;;;;;10.43;4.47;;;;;;;;;;5024329;28;39238;-77
2021/04/25 05:01:19;;;;;;;9.97;4.47;;;;;;;;;;5023219;28;36969;-77
2021/04/25 05:03:45;;;;;;;10.23;5.00;;;;;;;;;;5027694;28;39193;-77
2021/04/25 05:06:11;;;;;;;8.97;4.50;;;;;;;;;;5022751;28;39175;-77
2021/04/25 05:08:38;;;;;;;11.70;5.17;;;;;;;;;;5019493;28;40363;-77
2021/04/25 05:11:04;;;;;;;10.37;4.73;;;;;;;;;;5019630;28;38527;-77
2021/04/25 05:13:30;;;;;;;11.97;4.70;;;;;;;;;;5036006;28;40675;-77
2021/04/25 05:15:57;;;;;;;10.87;4.80;;;;;;;;;;5023608;28;40243;-77
2021/04/25 05:18:23;;;;;;;11.50;4.37;;;;;;;;;;5018987;28;40168;-77
2021/04/25 05:20:50;;;;;;;10.60;4.20;;;;;;;;;;5018137;28;37478;-77
2021/04/25 05:23:16;;;;;;;9.60;4.50;;;;;;;;;;5023968;28;39494;-77
2021/04/25 05:25:42;;;;;;;9.00;3.70;;;;;;;;;;5019787;28;40510;-77
2021/04/25 05:28:09;;;;;;;11.93;3.77;;;;;;;;;;5033321;28;40226;-77
2021/04/25 05:30:35;;;;;;;8.93;3.67;;;;;;;;;;5024687;28;36909;-77
2021/04/25 05:33:02;;;;;;;9.87;3.40;;;;;;;;;;5022677;28;40319;-77
2021/04/25 05:35:28;;;;;;;10.33;4.30;;;;;;;;;;5017028;28;40685;-77
2021/04/25 05:37:54;;;;;;;7.90;3.67;;;;;;;;;;5021519;28;39708;-78
2021/04/25 05:40:21;;;;;;;11.43;4.33;;;;;;;;;;5026141;28;38449;-78
2021/04/25 05:42:47;;;;;;;9.60;3.50;;;;;;;;;;5024186;28;38291;-77
2021/04/25 05:45:22;;;;;;;7.87;3.23;;;;;;;;;;5023479;28;39296;-77
2021/04/25 05:47:50;;;;;;;8.07;3.63;;;;;;;;;;5029721;28;39330;-77
2021/04/25 05:50:17;;;;;;;9.83;4.50;;;;;;;;;;5024862;28;36884;-77
2021/04/25 05:52:43;;;;;;;15.43;3.97;;;;;;;;;;5025935;28;37989;-77
2021/04/25 05:55:10;;;;;;;11.17;3.60;;;;;;;;;;5022800;28;39434;-77
2021/04/25 05:57:36;;;;;;;11.13;3.57;;;;;;;;;;5027159;28;39398;-77
2021/04/25 06:00:04;;;;;;;8.33;3.37;;;;;;;;;;5026746;28;37705;-77
2021/04/25 06:02:30;;;;;;;6.53;2.90;;;;;;;;;;5024776;28;39134;-78
2021/04/25 06:04:56;;;;;;;8.83;3.30;;;;;;;;;;5024961;28;38483;-77
2021/04/25 06:07:23;;;;;;;5.67;3.00;;;;;;;;;;5026203;28;38819;-78
2021/04/25 06:09:49;;;;;;;8.03;2.77;;;;;;;;;;5017179;28;36688;-77
2021/04/25 06:12:16;;;;;;;8.43;3.30;;;;;;;;;;5018779;28;40273;-79
2021/04/25 06:14:42;;;;;;;6.20;3.10;;;;;;;;;;5018285;28;40215;-77
2021/04/25 06:17:09;;;;;;;8.83;2.90;;;;;;;;;;5022034;28;37476;-77
2021/04/25 06:19:35;;;;;;;10.30;2.60;;;;;;;;;;5014101;28;35583;-77
2021/04/25 06:22:01;;;;;;;9.97;2.93;;;;;;;;;;5027275;28;39846;-77
2021/04/25 06:24:28;;;;;;;7.57;3.03;;;;;;;;;;5022529;28;48680;-77
2021/04/25 06:26:54;;;;;;;7.17;3.10;;;;;;;;;;5037708;28;38257;-77
2021/04/25 06:29:20;;;;;;;8.37;2.90;;;;;;;;;;5023910;28;36918;-77
2021/04/25 06:31:47;;;;;;;8.00;2.90;;;;;;;;;;5026282;28;39045;-77
2021/04/25 06:34:13;;;;;;;8.03;2.90;;;;;;;;;;5021587;28;38811;-77
2021/04/25 06:36:43;;;;;;;6.47;2.40;;;;;;;;;;5021186;28;39304;-77
2021/04/25 06:39:09;;;;;;;8.60;2.70;;;;;;;;;;5022534;28;37073;-77
2021/04/25 06:41:36;;;;;;;6.83;2.73;;;;;;;;;;5024288;28;40500;-76
2021/04/25 06:44:03;;;;;;;5.53;2.40;;;;;;;;;;5023244;28;38916;-77
2021/04/25 06:46:30;;;;;;;7.80;2.43;;;;;;;;;;5028346;28;37145;-75
2021/04/25 06:48:56;;;;;;;6.73;3.20;;;;;;;;;;5034180;28;37480;-76
2021/04/25 06:51:23;;;;;;;9.47;3.03;;;;;;;;;;5030207;28;40083;-76
2021/04/25 06:53:49;;;;;;;13.17;3.63;;;;;;;;;;5028926;28;39094;-76
2021/04/25 06:56:16;;;;;;;8.37;3.00;;;;;;;;;;5027069;28;38140;-76
2021/04/25 06:58:42;;;;;;;5.30;2.40;;;;;;;;;;5024950;28;37053;-76
2021/04/25 07:01:10;;;;;;;12.43;3.37;;;;;;;;;;5028347;28;40033;-76
2021/04/25 07:03:37;;;;;;;8.20;2.73;;;;;;;;;;5027016;28;39191;-76
2021/04/25 07:06:03;;;;;;;9.43;3.10;;;;;;;;;;5030612;28;39022;-76
2021/04/25 07:08:30;;;;;;;10.03;2.97;;;;;;;;;;5015145;28;37437;-76
2021/04/25 07:10:56;;;;;;;8.57;2.87;;;;;;;;;;5028157;28;38996;-76
2021/04/25 07:13:23;;;;;;;6.97;2.97;;;;;;;;;;5020000;28;39404;-76
2021/04/25 07:15:49;;;;;;;9.30;3.10;;;;;;;;;;5023045;28;38796;-77
2021/04/25 07:18:16;;;;;;;8.40;3.33;;;;;;;;;;5016387;28;38265;-77
2021/04/25 07:20:42;;;;;;;7.23;3.10;;;;;;;;;;5018278;28;39722;-77
2021/04/25 07:23:09;;;;;;;9.07;3.40;;;;;;;;;;5024842;28;39157;-76
2021/04/25 07:25:35;;;;;;;7.13;3.37;;;;;;;;;;5021464;28;38826;-77
2021/04/25 07:28:02;;;;;;;9.40;3.73;;;;;;;;;;5021531;28;37606;-76
2021/04/25 07:30:29;;;;;;;8.43;3.17;;;;;;;;;;5017125;28;38027;-76
2021/04/25 07:32:55;;;;;;;10.50;3.03;;;;;;;;;;5023153;28;38902;-76
2021/04/25 07:35:22;;;;;;;9.57;3.47;;;;;;;;;;5021595;28;38885;-77
2021/04/25 07:37:49;;;;;;;8.20;3.30;;;;;;;;;;5025004;28;37379;-77
2021/04/25 07:40:16;;;;;;;7.20;2.83;;;;;;;;;;5019979;28;39352;-77
2021/04/25 07:42:42;;;;;;;9.07;3.00;;;;;;;;;;5022250;28;40838;-76
2021/04/25 07:45:12;;;;;;;10.70;2.97;;;;;;;;;;5022759;28;38200;-76
2021/04/25 07:47:39;;;;;;;10.40;3.85;;;;;;;;;;5026732;28;38470;-77
2021/04/25 07:50:06;;;;;;;9.55;3.67;;;;;;;;;;5021375;28;39522;-77
2021/04/25 07:52:33;;;;;;;8.48;2.28;;;;;;;;;;5028810;28;39530;-76
2021/04/25 07:54:59;;;;;;;8.57;2.80;;;;;;;;;;5025548;28;39105;-77
2021/04/25 07:57:26;;;;;;;8.80;2.30;;;;;;;;;;5022349;28;36863;-76
2021/04/25 07:59:52;;;;;;;12.30;3.08;;;;;;;;;;5037657;28;42247;-76
2021/04/25 08:02:21;;;;;;;10.35;2.50;;;;;;;;;;5012910;28;39863;-76
2021/04/25 08:04:48;;;;;;;8.48;2.33;;;;;;;;;;5026418;28;39768;-76
2021/04/25 08:07:14;;;;;;;6.43;2.17;;;;;;;;;;5024098;28;38136;-76
2021/04/25 08:09:40;;;;;;;10.30;2.22;;;;;;;;;;5021535;28;40853;-76
2021/04/25 08:12:07;;;;;;;7.63;1.60;;;;;;;;;;5022750;28;40386;-75
2021/04/25 08:14:33;;;;;;;6.55;1.80;;;;;;;;;;5014516;28;37923;-76
2021/04/25 08:17:00;;;;;;;10.52;2.72;;;;;;;;;;5016213;28;38060;-76
2021/04/25 08:19:26;;;;;;;10.23;1.83;;;;;;;;;;5020522;28;38852;-76
2021/04/25 08:21:52;;;;;;;8.80;2.05;;;;;;;;;;5029803;28;39306;-75
2021/04/25 08:24:19;;;;;;;9.88;1.77;;;;;;;;;;5024537;28;39810;-76
2021/04/25 08:26:46;;;;;;;5.93;2.05;;;;;;;;;;5017975;28;37064;-76
2021/04/25 08:29:12;;;;;;;5.30;1.35;;;;;;;;;;5019105;28;42497;-76
2021/04/25 08:31:39;;;;;;;12.25;1.85;;;;;;;;;;5021662;28;38883;-76
2021/04/25 08:34:05;;;;;;;5.18;1.50;;;;;;;;;;5021755;28;42087;-76
2021/04/25 08:36:32;;;;;;;6.00;1.55;;;;;;;;;;5022157;28;38090;-76
2021/04/25 08:38:58;;;;;;;11.05;2.25;;;;;;;;;;5022146;28;38503;-76
2021/04/25 08:41:26;;;;;;;4.95;1.60;;;;;;;;;;5018388;28;39373;-76
2021/04/25 08:43:53;;;;;;;5.13;1.40;;;;;;;;;;5036171;28;39239;-76
2021/04/25 08:46:21;;;;;;;8.60;1.75;;;;;;;;;;5035760;28;38648;-76
2021/04/25 08:48:48;;;;;;;7.57;1.60;;;;;;;;;;5023443;28;39751;-77
2021/04/25 08:51:15;;;;;;;6.10;1.55;;;;;;;;;;5014241;28;38084;-79
2021/04/25 08:53:41;;;;;;;7.00;1.50;;;;;;;;;;5035630;28;39265;-79
2021/04/25 08:56:08;;;;;;;8.82;1.67;;;;;;;;;;5024801;28;35795;-78
2021/04/25 08:58:35;;;;;;;9.82;2.05;;;;;;;;;;5025890;28;38888;-78
2021/04/25 09:01:01;;;;;;;10.32;1.90;;;;;;;;;;5039198;28;39524;-79
2021/04/25 09:03:28;;;;;;;5.38;1.40;;;;;;;;;;5020170;28;48347;-78
2021/04/25 09:05:58;;;;;;;6.82;1.58;;;;;;;;;;5030234;28;37243;-79
2021/04/25 09:08:40;;;;;;;6.10;1.23;;;;;;;;;;5014186;28;39432;-79
2021/04/25 09:11:07;;;;;;;4.63;1.02;;;;;;;;;;5024748;28;39151;-78
2021/04/25 09:13:33;;;;;;;6.30;1.58;;;;;;;;;;5022691;28;39122;-78
2021/04/25 09:16:10;;;;;;;7.30;2.08;;;;;;;;;;5019166;28;37711;-78
2021/04/25 09:18:37;;;;;;;6.97;2.40;;;;;;;;;;5021268;28;48903;-79
2021/04/25 09:21:07;;;;;;;9.93;1.65;;;;;;;;;;5020318;28;39434;-77
2021/04/25 09:23:34;;;;;;;7.70;1.70;;;;;;;;;;5026187;28;39235;-78
2021/04/25 09:26:01;;;;;;;5.90;1.23;;;;;;;;;;5022699;28;38451;-78
2021/04/25 09:28:28;;;;;;;10.05;1.63;;;;;;;;;;5019461;28;47459;-78
2021/04/25 09:30:57;;;;;;;3.85;1.10;;;;;;;;;;5023668;28;39366;-78
2021/04/25 09:33:26;;;;;;;5.18;1.90;;;;;;;;;;5026116;28;39402;-79
2021/04/25 09:35:54;;;;;;;5.22;2.22;;;;;;;;;;5035402;28;35351;-79
2021/04/25 09:38:20;;;;;;;9.02;2.45;;;;;;;;;;5023257;28;39872;-79
2021/04/25 09:40:50;;;;;;;11.38;1.73;;;;;;;;;;5020500;28;38671;-79
2021/04/25 09:43:20;;;;;;;8.07;1.77;;;;;;;;;;5020628;28;38971;-79
2021/04/25 09:45:47;;;;;;;8.48;1.52;;;;;;;;;;5027924;28;36925;-79
2021/04/25 09:48:19;;;;;;;7.20;1.80;;;;;;;;;;5013176;28;39156;-80
2021/04/25 09:50:46;;;;;;;4.20;1.25;;;;;;;;;;5017528;28;39724;-79
2021/04/25 09:53:19;;;;;;;6.40;1.30;;;;;;;;;;5022687;28;41625;-79
2021/04/25 09:55:55;;;;;;;6.20;1.45;;;;;;;;;;5018781;28;36181;-78
2021/04/25 09:58:22;;;;;;;6.63;1.33;;;;;;;;;;5021834;28;37617;-78
2021/04/25 10:00:50;;;;;;;8.38;2.33;;;;;;;;;;5018897;28;39179;-78
2021/04/25 10:03:20;;;;;;;5.80;1.50;;;;;;;;;;5020087;28;38742;-78
2021/04/25 10:06:00;;;;;;;9.65;1.52;;;;;;;;;;5022852;28;38639;-78
2021/04/25 10:08:28;;;;;;;6.25;1.63;;;;;;;;;;5019644;28;40117;-78
2021/04/25 10:10:54;;;;;;;6.63;2.25;;;;;;;;;;5023958;28;39963;-78
2021/04/25 10:13:20;;;;;;;7.47;1.52;;;;;;;;;;5034822;28;39353;-78
2021/04/25 10:15:47;;;;;;;9.13;1.63;;;;;;;;;;5016092;28;37620;-78
2021/04/25 10:18:13;;;;;;;6.00;1.52;;;;;;;;;;5025858;28;39441;-78
2021/04/25 10:20:40;;;;;;;6.65;1.40;;;;;;;;;;5025532;28;39726;-78
2021/04/25 10:23:07;;;;;;;5.68;1.75;;;;;;;;;;5017938;28;39059;-77
2021/04/25 10:25:35;;;;;;;7.28;1.88;;;;;;;;;;5019500;28;38534;-78
2021/04/25 10:28:04;;;;;;;8.43;1.45;;;;;;;;;;5022813;28;38923;-78
2021/04/25 10:30:36;;;;;;;5.95;1.50;;;;;;;;;;5021948;28;47294;-78
2021/04/25 10:33:03;;;;;;;;;;;;;;;;;;5017456;28;38882;-77
2021/04/25 10:35:33;;;;;;;13.82;2.03;;;;;;;;;;5026923;28;38721;-78
2021/04/25 10:38:00;;;;;;;6.97;1.45;;;;;;;;;;5025493;28;40777;-77
2021/04/25 10:40:32;;;;;;;20.70;3.40;;;;;;;;;;5025755;28;39447;-77
2021/04/25 10:43:03;;;;;;;61.53;8.95;;;;;;;;;;5026798;28;39259;-78
2021/04/25 10:45:31;;;;;;;60.67;6.30;;;;;;;;;;5039030;28;47820;-77
2021/04/25 10:48:16;;;;;;;6.80;1.58;;;;;;;;;;5026646;28;40310;-77
2021/04/25 10:50:43;;;;;;;9.25;1.60;;;;;;;;;;5037216;28;47148;-77
2021/04/25 10:53:24;;;;;;;6.85;2.00;;;;;;;;;;5012856;28;37167;-77
2021/04/25 10:56:20;;;;;;;5.95;1.20;;;;;;;;;;5023693;28;38401;-77
2021/04/25 10:58:48;;;;;;;9.40;1.55;;;;;;;;;;5036195;28;46088;-77
2021/04/25 11:01:33;;;;;;;8.38;2.40;;;;;;;;;;5025890;28;38921;-77
2021/04/25 11:03:59;;;;;;;7.63;1.50;;;;;;;;;;5026012;28;38798;-77
2021/04/25 11:06:27;;;;;;;8.43;2.50;;;;;;;;;;5030275;28;37951;-78
2021/04/25 11:08:53;;;;;;;8.18;1.83;;;;;;;;;;5021905;28;40690;-78
2021/04/25 11:11:29;;;;;;;7.50;1.70;;;;;;;;;;5020723;28;39751;-77
2021/04/25 11:13:57;;;;;;;5.85;2.03;;;;;;;;;;5019818;28;40063;-77
2021/04/25 11:16:23;;;;;;;8.07;2.20;;;;;;;;;;5022558;28;37857;-77
2021/04/25 11:18:52;;;;;;;6.43;2.08;;;;;;;;;;5029966;28;38932;-77
2021/04/25 11:21:39;;;;;;;7.05;1.70;;;;;;;;;;5039686;28;40696;-77
2021/04/25 11:24:05;;;;;;;9.02;1.73;;;;;;;;;;5015917;28;38557;-77
2021/04/25 11:26:43;;;;;;;6.97;1.60;;;;;;;;;;5016903;28;37178;-77
2021/04/25 11:29:11;;;;;;;6.45;1.45;;;;;;;;;;5015709;28;38719;-77
2021/04/25 11:31:56;;;;;;;6.80;1.80;;;;;;;;;;5022681;28;40063;-77
2021/04/25 11:34:25;;;;;;;6.13;1.63;;;;;;;;;;5025060;28;40204;-78
2021/04/25 11:36:52;;;;;;;12.27;2.45;;;;;;;;;;5025801;28;36943;-78
2021/04/25 11:39:20;;;;;;;3.92;1.25;;;;;;;;;;5027497;28;39639;-77
2021/04/25 11:41:48;;;;;;;9.20;1.65;;;;;;;;;;5026770;28;38721;-77
2021/04/25 11:44:29;;;;;;;7.32;1.40;;;;;;;;;;5033976;28;38622;-77
2021/04/25 11:46:56;;;;;;;5.28;1.45;;;;;;;;;;5026056;28;37560;-77
2021/04/25 11:49:29;;;;;;;6.22;1.90;;;;;;;;;;5024429;28;40431;-77
2021/04/25 11:52:06;;;;;;;5.03;1.48;;;;;;;;;;5022286;28;39604;-77
2021/04/25 11:54:33;;;;;;;5.40;1.33;;;;;;;;;;5022143;28;49049;-77
2021/04/25 11:57:08;;;;;;;10.73;2.05;;;;;;;;;;5025590;28;37267;-77
2021/04/25 11:59:35;;;;;;;8.75;2.70;;;;;;;;;;5031566;28;47480;-77
2021/04/25 12:02:08;;;;;;;7.55;2.00;;;;;;;;;;5021035;28;38721;-77
2021/04/25 12:04:51;;;;;;;7.55;2.08;;;;;;;;;;5018044;28;37525;-78
2021/04/25 12:07:30;;;;;;;9.02;2.47;;;;;;;;;;5017201;28;36791;-78
2021/04/25 12:09:56;;;;;;;6.40;2.17;;;;;;;;;;5022152;28;39030;-78
2021/04/25 12:12:22;;;;;;;10.98;3.60;;;;;;;;;;5017104;28;39099;-78
2021/04/25 12:15:03;;;;;;;4.15;1.80;;;;;;;;;;5031041;28;40259;-77
2021/04/25 12:17:30;;;;;;;11.13;3.97;;;;;;;;;;5021149;28;46873;-77
2021/04/25 12:19:57;;;;;;;9.13;2.40;;;;;;;;;;5028654;28;37809;-78
2021/04/25 12:22:24;;;;;;;11.98;3.20;;;;;;;;;;5020444;28;39547;-78
2021/04/25 12:24:54;;;;;;;10.45;4.22;;;;;;;;;;5034643;28;40279;-77
2021/04/25 12:27:20;;;;;;;4.13;1.70;;;;;;;;;;5020275;28;34354;-78
2021/04/25 12:29:48;;;;;;;12.30;5.10;;;;;;;;;;5018708;28;37551;-77
2021/04/25 12:32:21;;;;;;;5.88;1.77;;;;;;;;;;5018609;28;39358;-77
2021/04/25 12:34:58;;;;;;;7.45;2.10;;;;;;;;;;5017076;28;39217;-78
2021/04/25 12:37:57;;;;;;;9.38;1.90;;;;;;;;;;5018455;28;37114;-78
2021/04/25 12:40:32;;;;;;;7.45;1.90;;;;;;;;;;4962269;28;39718;-78
2021/04/25 12:43:08;;;;;;;8.30;2.20;;;;;;;;;;4970329;28;39636;-77
2021/04/25 12:45:34;;;;;;;5.22;1.85;;;;;;;;;;5019134;28;48804;-77
2021/04/25 12:48:20;;;;;;;7.90;2.17;;;;;;;;;;5021110;28;37216;-77
2021/04/25 12:51:07;;;;;;;8.50;2.35;;;;;;;;;;5016829;28;48951;-78
2021/04/25 12:53:36;;;;;;;8.18;2.75;;;;;;;;;;5014596;28;47338;-78
2021/04/25 12:56:23;;;;;;;12.50;2.28;;;;;;;;;;5019814;28;39413;-78
2021/04/25 12:58:59;;;;;;;6.38;2.10;;;;;;;;;;5018635;28;47548;-77
2021/04/25 13:01:26;;;;;;;8.98;2.50;;;;;;;;;;5018464;28;37758;-77
2021/04/25 13:03:52;;;;;;;6.55;2.20;;;;;;;;;;5021939;28;37923;-77
2021/04/25 13:06:26;;;;;;;5.88;2.05;;;;;;;;;;5024879;28;40352;-77
2021/04/25 13:08:52;;;;;;;8.98;2.17;;;;;;;;;;5024398;28;35976;-77
2021/04/25 13:11:19;;;;;;;8.05;2.10;;;;;;;;;;5014061;28;40656;-77
2021/04/25 13:13:45;;;;;;;7.47;1.95;;;;;;;;;;5033551;28;40620;-77
2021/04/25 13:16:12;;;;;;;6.22;1.52;;;;;;;;;;5024352;28;38138;-77
2021/04/25 13:18:38;;;;;;;5.47;1.73;;;;;;;;;;5014495;28;36705;-77
2021/04/25 13:21:06;;;;;;;5.32;1.80;;;;;;;;;;5024243;28;40268;-77
2021/04/25 13:23:38;;;;;;;6.55;2.10;;;;;;;;;;5020178;28;39232;-75
2021/04/25 13:26:07;;;;;;;6.40;1.90;;;;;;;;;;5008121;28;40223;-78
2021/04/25 13:28:33;;;;;;;7.75;2.25;;;;;;;;;;5023400;28;38414;-78
2021/04/25 13:31:05;;;;;;;5.10;1.77;;;;;;;;;;5015636;28;39513;-75
2021/04/25 13:33:32;;;;;;;3.67;1.58;;;;;;;;;;5017850;28;48924;-75
2021/04/25 13:36:00;;;;;;;5.22;1.90;;;;;;;;;;5023026;28;39990;-76
2021/04/25 13:38:27;;;;;;;6.53;1.70;;;;;;;;;;5021883;28;37375;-76
2021/04/25 13:40:55;;;;;;;8.32;1.98;;;;;;;;;;5016034;28;39675;-75
2021/04/25 13:43:22;;;;;;;6.50;1.50;;;;;;;;;;5022714;28;38893;-75
2021/04/25 13:45:48;;;;;;;4.47;1.52;;;;;;;;;;5027356;28;38323;-75
2021/04/25 13:48:15;;;;;;;5.55;1.95;;;;;;;;;;5029266;28;36915;-77
2021/04/25 13:50:42;;;;;;;5.53;1.80;;;;;;;;;;5015927;28;38900;-77
2021/04/25 13:53:09;;;;;;;4.30;1.65;;;;;;;;;;5012240;28;39484;-77
2021/04/25 13:55:35;;;;;;;5.25;1.48;;;;;;;;;;5023576;28;38837;-77
2021/04/25 13:58:02;;;;;;;5.72;1.65;;;;;;;;;;5019470;28;37218;-77
2021/04/25 14:00:29;;;;;;;5.20;1.65;;;;;;;;;;5029774;28;48258;-77
2021/04/25 14:02:56;;;;;;;5.68;1.60;;;;;;;;;;5014731;28;39133;-75
2021/04/25 14:05:23;;;;;;;4.22;1.63;;;;;;;;;;5008159;28;36216;-77
2021/04/25 14:07:50;;;;;;;4.28;1.85;;;;;;;;;;5012647;28;37265;-76
2021/04/25 14:10:19;;;;;;;6.28;1.70;;;;;;;;;;5036884;28;39435;-77
2021/04/25 14:12:46;;;;;;;6.05;1.60;;;;;;;;;;5019734;28;38348;-77
2021/04/25 14:15:14;;;;;;;5.68;2.08;;;;;;;;;;5016105;28;40072;-76
2021/04/25 14:17:40;;;;;;;5.75;1.95;;;;;;;;;;5011219;28;37300;-77
2021/04/25 14:20:07;;;;;;;9.10;2.83;;;;;;;;;;5016718;28;39097;-76
2021/04/25 14:22:34;;;;;;;5.25;1.75;;;;;;;;;;5031508;28;39468;-77
2021/04/25 14:25:00;;;;;;;4.13;1.65;;;;;;;;;;5016596;28;38369;-77
2021/04/25 14:27:27;;;;;;;4.78;1.33;;;;;;;;;;5016486;28;36340;-78
2021/04/25 14:29:53;;;;;;;4.22;2.00;;;;;;;;;;5017648;28;38975;-78
2021/04/25 14:32:20;;;;;;;5.60;1.77;;;;;;;;;;5024179;28;40160;-78
2021/04/25 14:34:47;;;;;;;4.13;1.90;;;;;;;;;;5016787;28;38664;-78
2021/04/25 14:37:13;;;;;;;6.57;1.98;;;;;;;;;;5024429;28;36236;-78
2021/04/25 14:39:40;;;;;;;5.80;1.80;;;;;;;;;;5019635;28;37430;-77
2021/04/25 14:42:07;;;;;;;5.80;1.98;;;;;;;;;;5028019;28;41567;-78